Time;durP1;ratioP1;P1;durP2;ratioP2;P2;SDS_P1;SDS_P2;PMS_P1;PMS_P2;Temp;Humidity;BMP_temperature;BMP_pressure;BME280_temperature;BME280_humidity;BME280_pressure;Samples;Min_cycle;Max_cycle;Signal;HPM_P1;HPM_P2
2022/08/11 00:00:37;;;;;;;3.42;2.38;;;19.60;72.00;;;;;;4955185;29;20027;-52
2022/08/11 00:03:10;;;;;;;4.25;2.28;;;19.70;71.40;;;;;;4955229;28;20035;-51
2022/08/11 00:05:47;;;;;;;3.38;2.08;;;19.60;71.80;;;;;;4955622;28;20030;-52
2022/08/11 00:08:30;;;;;;;5.75;2.50;;;19.70;72.00;;;;;;4955058;28;20130;-51
2022/08/11 00:11:06;;;;;;;13.90;2.53;;;19.60;72.40;;;;;;4956797;29;20019;-54
2022/08/11 00:13:39;;;;;;;3.50;2.63;;;19.60;72.30;;;;;;4955130;29;20078;-52
2022/08/11 00:16:24;;;;;;;4.47;2.17;;;19.60;71.80;;;;;;4955264;29;20031;-53
2022/08/11 00:18:53;;;;;;;4.47;2.30;;;19.50;72.60;;;;;;4954874;28;20032;-53
2022/08/11 00:21:21;;;;;;;5.43;2.60;;;19.40;73.00;;;;;;4956139;29;20027;-49
2022/08/11 00:24:01;;;;;;;3.97;2.30;;;19.40;72.90;;;;;;4955431;29;20086;-51
2022/08/11 00:26:28;;;;;;;3.33;2.35;;;19.30;72.80;;;;;;4956430;29;20054;-52
2022/08/11 00:28:55;;;;;;;2.75;2.20;;;19.30;73.50;;;;;;4955789;29;20030;-49
2022/08/11 00:31:27;;;;;;;7.80;2.50;;;19.20;73.60;;;;;;4954685;29;20027;-52
2022/08/11 00:33:55;;;;;;;2.83;2.20;;;19.10;74.10;;;;;;4954682;29;20019;-52
2022/08/11 00:36:28;;;;;;;5.13;2.53;;;19.10;74.10;;;;;;4954584;29;20023;-52
2022/08/11 00:38:55;;;;;;;6.43;2.58;;;18.90;74.20;;;;;;4955966;29;20027;-52
2022/08/11 00:41:42;;;;;;;6.30;2.35;;;18.80;75.20;;;;;;4955830;29;20035;-50
2022/08/11 00:44:27;;;;;;;4.55;2.63;;;18.70;74.90;;;;;;4956114;29;20027;-49
2022/08/11 00:47:18;;;;;;;5.90;2.75;;;18.60;75.40;;;;;;4954437;29;20063;-50
2022/08/11 00:50:01;;;;;;;3.85;2.10;;;18.60;75.50;;;;;;4955842;29;20490;-52
2022/08/11 00:53:01;;;;;;;5.45;2.20;;;18.50;75.70;;;;;;4954408;29;20492;-53
2022/08/11 00:55:54;;;;;;;4.43;2.28;;;18.50;76.00;;;;;;4955871;28;20027;-52
2022/08/11 00:58:57;;;;;;;4.43;2.58;;;18.40;75.90;;;;;;4955505;28;20019;-50
2022/08/11 01:01:32;;;;;;;3.67;1.90;;;18.40;76.80;;;;;;4955630;28;20090;-53
2022/08/11 01:04:22;;;;;;;2.35;2.05;;;18.40;76.20;;;;;;4954380;29;20118;-54
2022/08/11 01:07:11;;;;;;;6.85;2.30;;;18.40;76.50;;;;;;4955401;29;20027;-48
2022/08/11 01:10:05;;;;;;;4.30;2.60;;;18.30;76.60;;;;;;4955386;29;20023;-48
2022/08/11 01:13:00;;;;;;;2.47;2.10;;;18.20;76.70;;;;;;4970228;28;20035;-51
2022/08/11 01:15:47;;;;;;;4.43;2.35;;;18.20;77.10;;;;;;4953748;29;20038;-48
2022/08/11 01:18:31;;;;;;;5.00;2.58;;;18.10;77.60;;;;;;4954065;29;20027;-52
2022/08/11 01:21:12;;;;;;;5.28;2.30;;;17.80;78.30;;;;;;4955207;28;20054;-51
2022/08/11 01:23:56;;;;;;;3.03;2.65;;;17.80;78.70;;;;;;4954218;29;20120;-54
2022/08/11 01:26:46;;;;;;;5.32;2.95;;;17.80;78.60;;;;;;4954079;29;20491;-49
2022/08/11 01:29:50;;;;;;;2.78;2.40;;;17.80;78.60;;;;;;4953776;29;20027;-48
2022/08/11 01:32:28;;;;;;;2.67;2.40;;;17.80;79.30;;;;;;4955110;28;20027;-50
2022/08/11 01:35:00;;;;;;;3.38;2.50;;;17.70;79.30;;;;;;4955192;29;20030;-53
2022/08/11 01:37:37;;;;;;;3.80;2.22;;;17.80;79.50;;;;;;4953937;28;20031;-50
2022/08/11 01:40:53;;;;;;;3.75;2.65;;;17.80;79.80;;;;;;4954188;29;20122;-50
2022/08/11 01:46:24;;;;;;;4.35;2.08;;;17.60;79.70;;;;;;4955353;29;20497;-51
2022/08/11 01:49:02;;;;;;;3.55;2.28;;;17.50;80.30;;;;;;4953886;29;20033;-49
2022/08/11 01:51:33;;;;;;;3.03;2.53;;;17.60;81.20;;;;;;4955068;29;20027;-49
2022/08/11 01:54:08;;;;;;;3.80;2.33;;;17.70;81.30;;;;;;4954463;29;20031;-48
2022/08/11 01:56:42;;;;;;;5.18;2.80;;;17.70;80.60;;;;;;4954941;29;20062;-49
2022/08/11 01:59:10;;;;;;;3.08;2.45;;;17.70;80.70;;;;;;4953921;29;20027;-49
2022/08/11 02:02:14;;;;;;;5.78;2.90;;;17.60;81.30;;;;;;4953785;29;20152;-51
2022/08/11 02:04:45;;;;;;;3.08;2.50;;;17.50;82.00;;;;;;4954944;28;20418;-49
2022/08/11 02:07:37;;;;;;;7.03;2.65;;;17.50;81.90;;;;;;4955255;29;20077;-49
2022/08/11 02:13:30;;;;;;;3.23;2.33;;;17.40;82.70;;;;;;4958585;29;19961;-50
2022/08/11 02:16:21;;;;;;;4.72;2.67;;;17.30;83.10;;;;;;4958018;28;20382;-51
2022/08/11 02:24:36;;;;;;;7.82;2.80;;;17.20;84.90;;;;;;4958832;29;20038;-50
2022/08/11 02:27:23;;;;;;;4.45;2.42;;;17.20;83.60;;;;;;4957846;28;20046;-48
2022/08/11 02:30:05;;;;;;;4.57;2.72;;;17.10;85.20;;;;;;4957891;28;20495;-49
2022/08/11 02:35:56;;;;;;;2.55;2.15;;;16.90;86.10;;;;;;4958605;29;20034;-48
2022/08/11 02:38:28;;;;;;;6.05;3.40;;;17.00;86.30;;;;;;4957184;29;20062;-51
2022/08/11 02:42:21;;;;;;;5.88;3.03;;;16.90;87.20;;;;;;4958264;29;20031;-50
2022/08/11 02:44:32;;;;;;;7.18;2.85;;;17.00;87.20;;;;;;4957751;29;20031;-52
2022/08/11 02:47:16;;;;;;;5.03;2.58;;;17.10;87.10;;;;;;4956662;28;20106;-49
2022/08/11 02:50:09;;;;;;;4.80;2.78;;;17.00;87.70;;;;;;4956626;29;20047;-50
2022/08/11 02:53:02;;;;;;;6.82;3.15;;;16.80;88.20;;;;;;4958738;29;20031;-51
2022/08/11 02:55:58;;;;;;;10.85;4.25;;;16.80;88.40;;;;;;4957865;29;20027;-49
2022/08/11 02:58:34;;;;;;;8.07;4.15;;;16.90;88.40;;;;;;4957152;29;20031;-51
2022/08/11 03:01:10;;;;;;;3.28;2.53;;;16.80;89.00;;;;;;4957822;29;20050;-50
2022/08/11 03:03:53;;;;;;;12.88;4.13;;;16.90;89.30;;;;;;4956385;29;20035;-49
2022/08/11 03:06:34;;;;;;;4.88;2.92;;;16.90;90.00;;;;;;4957472;29;20027;-53
2022/08/11 03:09:12;;;;;;;9.45;5.63;;;16.90;90.20;;;;;;4972261;28;20023;-50
2022/08/11 03:18:25;;;;;;;6.00;3.22;;;16.80;90.40;;;;;;4958216;29;20110;-53
2022/08/11 03:21:27;;;;;;;5.90;3.28;;;16.70;90.70;;;;;;4956925;28;20031;-56
2022/08/11 03:24:14;;;;;;;4.55;3.22;;;16.70;90.70;;;;;;4955820;29;20031;-55
2022/08/11 03:27:10;;;;;;;3.17;2.65;;;16.60;91.40;;;;;;4956054;29;20406;-55
2022/08/11 03:30:15;;;;;;;4.88;2.95;;;16.50;91.90;;;;;;4956168;29;20030;-55
2022/08/11 03:32:40;;;;;;;8.70;4.00;;;16.50;92.20;;;;;;4956021;29;20114;-52
2022/08/11 03:35:08;;;;;;;5.20;2.55;;;16.50;92.40;;;;;;4957121;29;20102;-50
2022/08/11 03:37:53;;;;;;;7.15;3.63;;;16.40;92.80;;;;;;4956234;28;20034;-51
2022/08/11 03:43:25;;;;;;;5.20;3.03;;;16.30;93.30;;;;;;4957143;29;20030;-51
2022/08/11 03:46:11;;;;;;;4.88;3.10;;;16.30;93.80;;;;;;4956524;28;20023;-50
2022/08/11 03:48:56;;;;;;;5.90;2.50;;;16.30;93.80;;;;;;4955224;29;20438;-50
2022/08/11 03:51:44;;;;;;;3.42;3.13;;;16.30;94.10;;;;;;4956537;29;20110;-51
2022/08/11 03:54:32;;;;;;;5.85;3.05;;;16.30;94.10;;;;;;4956763;28;20035;-50
2022/08/11 03:57:35;;;;;;;4.75;3.08;;;16.20;94.30;;;;;;4956577;29;20023;-52
2022/08/11 04:00:13;;;;;;;4.88;3.30;;;16.30;95.30;;;;;;4956753;29;20031;-48
2022/08/11 04:03:03;;;;;;;5.47;2.75;;;16.30;94.80;;;;;;4956748;29;20030;-52
2022/08/11 04:06:02;;;;;;;20.08;8.00;;;16.30;95.10;;;;;;4956871;28;20027;-51
2022/08/11 04:09:01;;;;;;;6.43;3.35;;;16.10;95.60;;;;;;4956220;28;20031;-50
2022/08/11 04:11:50;;;;;;;4.95;3.08;;;16.10;96.50;;;;;;4955122;28;20019;-53
2022/08/11 04:18:02;;;;;;;4.72;3.10;;;16.20;96.70;;;;;;4956321;29;20035;-49
2022/08/11 04:20:40;;;;;;;3.67;2.97;;;16.20;97.70;;;;;;4956176;29;20150;-50
2022/08/11 04:23:30;;;;;;;6.15;2.83;;;16.20;97.90;;;;;;4955129;29;20547;-52
2022/08/11 04:26:32;;;;;;;7.95;3.30;;;16.20;98.10;;;;;;4954959;29;20027;-51
2022/08/11 04:29:23;;;;;;;;;;;16.20;97.90;;;;;;4955936;28;20027;-51
2022/08/11 04:31:52;;;;;;;6.32;3.30;;;16.30;98.10;;;;;;4955781;28;19942;-50
2022/08/11 04:34:43;;;;;;;5.47;2.90;;;16.50;97.80;;;;;;4955872;29;20498;-54
2022/08/11 04:37:33;;;;;;;4.32;3.03;;;16.60;97.70;;;;;;4956223;29;20076;-54
2022/08/11 04:40:11;;;;;;;4.32;2.92;;;16.80;97.30;;;;;;4954568;28;20038;-55
2022/08/11 04:45:39;;;;;;;3.10;2.80;;;17.10;96.80;;;;;;4956057;29;20034;-54
2022/08/11 05:07:08;;;;;;;14.02;3.03;;;19.30;92.40;;;;;;4956058;29;20455;-51
2022/08/11 05:09:54;;;;;;;4.72;3.20;;;19.90;91.20;;;;;;4954936;29;20110;-54
2022/08/11 05:12:49;;;;;;;7.50;3.08;;;20.20;90.70;;;;;;4954526;29;20024;-49
2022/08/11 05:35:31;;;;;;;9.73;3.08;;;23.70;78.70;;;;;;4955727;29;20106;-51
2022/08/11 05:57:37;;;;;;;4.70;2.40;;;26.70;70.70;;;;;;4958835;29;20029;-59
2022/08/11 06:00:09;;;;;;;3.92;2.42;;;27.10;69.50;;;;;;4958638;29;20038;-58
2022/08/11 06:02:48;;;;;;;4.78;2.30;;;27.50;69.40;;;;;;4957608;29;20027;-59
2022/08/11 06:05:15;;;;;;;3.35;2.53;;;28.00;67.80;;;;;;4958815;29;20538;-58
2022/08/11 06:07:42;;;;;;;6.82;2.90;;;28.30;66.40;;;;;;4958425;28;20074;-60
2022/08/11 06:10:09;;;;;;;4.28;2.67;;;28.80;64.10;;;;;;4957217;29;20028;-59
2022/08/11 06:12:36;;;;;;;5.68;2.70;;;29.10;63.90;;;;;;4957280;29;20024;-60
2022/08/11 06:15:08;;;;;;;4.10;2.58;;;29.50;61.10;;;;;;4957229;29;20023;-60
2022/08/11 06:17:43;;;;;;;2.88;2.00;;;29.50;61.90;;;;;;4958892;29;20041;-59
2022/08/11 06:20:11;;;;;;;5.55;2.40;;;29.80;61.10;;;;;;4958583;29;20023;-60
2022/08/11 06:22:38;;;;;;;4.38;2.40;;;30.20;61.00;;;;;;4958593;29;20024;-60
2022/08/11 06:25:07;;;;;;;4.85;2.53;;;30.80;59.50;;;;;;4958481;29;20027;-58
2022/08/11 06:27:36;;;;;;;7.55;2.70;;;31.20;58.50;;;;;;4957051;29;20023;-60
2022/08/11 06:30:12;;;;;;;5.53;2.50;;;31.70;57.20;;;;;;4958301;29;20028;-60
2022/08/11 06:32:40;;;;;;;2.72;2.47;;;32.10;57.80;;;;;;4958338;29;20469;-58
2022/08/11 06:35:35;;;;;;;5.18;2.40;;;32.60;56.30;;;;;;4958027;29;20057;-59
2022/08/11 06:38:16;;;;;;;4.05;2.00;;;33.00;55.00;;;;;;4958255;29;20028;-59
2022/08/11 06:44:03;;;;;;;8.25;2.53;;;33.50;53.40;;;;;;4958252;29;20078;-60
2022/08/11 06:46:37;;;;;;;3.22;2.42;;;33.80;52.50;;;;;;4972910;28;20026;-60
2022/08/11 06:49:05;;;;;;;4.45;2.50;;;33.80;54.10;;;;;;4957978;29;20027;-60
2022/08/11 06:51:39;;;;;;;16.13;3.22;;;33.90;52.70;;;;;;4956751;28;20098;-58
2022/08/11 06:54:06;;;;;;;4.72;2.50;;;34.20;52.00;;;;;;4957815;29;20019;-58
2022/08/11 07:02:25;;;;;;;3.67;2.50;;;35.50;51.40;;;;;;4958149;29;20074;-60
2022/08/11 07:05:07;;;;;;;6.07;2.45;;;36.10;49.90;;;;;;4956933;29;20028;-61
2022/08/11 07:16:28;;;;;;;6.82;2.50;;;37.30;47.50;;;;;;4966674;28;20140;-60
2022/08/11 07:30:59;;;;;;;12.02;2.80;;;38.00;46.50;;;;;;4957626;29;20043;-62
2022/08/11 07:33:31;;;;;;;10.95;2.55;;;38.50;45.60;;;;;;4971893;28;20058;-60
2022/08/11 07:35:59;;;;;;;7.70;2.47;;;38.50;47.10;;;;;;4956965;29;20106;-54
2022/08/11 07:38:44;;;;;;;15.40;2.90;;;39.30;44.50;;;;;;4955589;28;20019;-57
2022/08/11 07:41:13;;;;;;;9.43;3.05;;;40.00;45.10;;;;;;4957143;29;20423;-59
2022/08/11 07:43:43;;;;;;;4.80;2.88;;;40.00;43.30;;;;;;4955786;29;20090;-57
2022/08/11 07:54:26;;;;;;;8.15;3.10;;;40.30;43.60;;;;;;4956863;29;20564;-54
2022/08/11 07:56:52;;;;;;;9.90;2.78;;;41.00;42.80;;;;;;4956668;29;20027;-57
2022/08/11 08:18:36;;;;;;;11.40;2.85;;;41.30;42.10;;;;;;4955758;29;20074;-59
2022/08/11 08:21:13;;;;;;;13.23;2.80;;;40.70;42.40;;;;;;4954855;29;20047;-54
2022/08/11 08:23:46;;;;;;;6.28;2.70;;;41.70;42.00;;;;;;4954961;29;20031;-56
2022/08/11 08:31:52;;;;;;;6.97;2.97;;;41.90;41.50;;;;;;4956529;29;20030;-59
2022/08/11 08:34:19;;;;;;;7.93;3.10;;;42.30;40.80;;;;;;4955923;29;20024;-52
2022/08/11 08:36:49;;;;;;;11.18;2.95;;;42.60;40.20;;;;;;4954601;29;20023;-57
2022/08/11 08:39:20;;;;;;;9.55;2.85;;;42.80;40.50;;;;;;4954570;29;20114;-55
2022/08/11 08:41:51;;;;;;;8.35;3.35;;;43.80;40.10;;;;;;4954499;29;20582;-53
2022/08/11 08:44:17;;;;;;;5.88;2.92;;;44.70;39.80;;;;;;4954570;29;20027;-54
2022/08/11 08:46:48;;;;;;;9.73;3.20;;;45.50;38.00;;;;;;4955773;29;20102;-57
2022/08/11 08:49:18;;;;;;;9.65;3.17;;;45.80;38.30;;;;;;4955844;29;20024;-54
2022/08/11 08:51:47;;;;;;;8.75;3.05;;;45.40;37.70;;;;;;4956129;29;20035;-54
2022/08/11 08:54:18;;;;;;;;;;;45.40;37.50;;;;;;4956097;29;20031;-52
2022/08/11 08:56:45;;;;;;;7.47;2.63;;;46.10;37.20;;;;;;4954760;28;19907;-52
2022/08/11 08:59:15;;;;;;;4.25;2.53;;;46.90;37.20;;;;;;4954277;28;20027;-53
2022/08/11 09:01:57;;;;;;;5.72;3.28;;;46.20;36.10;;;;;;4956079;29;20034;-57
2022/08/11 09:04:23;;;;;;;4.47;3.30;;;46.50;36.90;;;;;;4954262;29;20023;-54
2022/08/11 09:06:50;;;;;;;4.22;2.60;;;46.10;36.70;;;;;;4954245;29;20513;-55
2022/08/11 09:09:16;;;;;;;6.35;2.97;;;45.00;36.80;;;;;;4955256;29;20031;-58
2022/08/11 09:11:49;;;;;;;3.53;2.50;;;44.50;36.70;;;;;;4954206;29;20027;-55
2022/08/11 09:17:21;;;;;;;8.68;2.72;;;44.50;37.80;;;;;;4955954;29;20078;-52
2022/08/11 09:19:48;;;;;;;8.40;2.60;;;45.30;37.20;;;;;;4953707;28;20033;-57
2022/08/11 09:27:51;;;;;;;3.65;2.75;;;41.30;38.50;;;;;;4955701;29;20062;-54
2022/08/11 09:30:18;;;;;;;7.97;3.40;;;41.90;39.20;;;;;;4954218;29;20125;-56
2022/08/11 09:32:45;;;;;;;9.38;3.03;;;41.90;39.10;;;;;;4954333;28;20028;-57
2022/08/11 09:35:11;;;;;;;3.63;2.58;;;43.50;38.10;;;;;;4954852;28;20024;-59
2022/08/11 09:40:32;;;;;;;5.20;2.70;;;45.80;36.80;;;;;;4955426;29;20521;-53
2022/08/11 09:45:51;;;;;;;5.65;2.42;;;45.30;36.70;;;;;;4955106;29;20082;-58
2022/08/11 09:48:21;;;;;;;8.35;3.00;;;45.80;36.90;;;;;;4953804;29;20031;-57
2022/08/11 09:50:50;;;;;;;2.95;2.53;;;46.70;35.50;;;;;;4954779;29;20110;-57
2022/08/11 09:53:17;;;;;;;3.97;2.78;;;47.00;35.90;;;;;;4954062;28;20459;-55
2022/08/11 09:55:47;;;;;;;4.38;2.60;;;46.70;36.10;;;;;;4953836;28;20027;-53
2022/08/11 09:58:15;;;;;;;3.58;2.80;;;46.10;34.00;;;;;;4954187;29;20023;-54
2022/08/11 10:00:42;;;;;;;3.83;2.50;;;44.60;35.00;;;;;;4954066;28;20046;-53
2022/08/11 10:03:28;;;;;;;8.40;2.70;;;44.60;34.90;;;;;;4954545;28;20114;-55
2022/08/11 10:08:51;;;;;;;5.07;2.75;;;44.60;34.50;;;;;;4954701;29;20042;-55
2022/08/11 10:11:22;;;;;;;4.07;2.53;;;41.50;35.90;;;;;;4954849;29;20074;-56
2022/08/11 10:16:39;;;;;;;3.65;2.80;;;38.40;38.90;;;;;;4955510;29;20086;-58
2022/08/11 10:19:07;;;;;;;5.15;2.53;;;38.80;37.70;;;;;;4954779;29;20030;-57
2022/08/11 10:21:40;;;;;;;3.70;2.85;;;39.10;37.70;;;;;;4953651;28;20041;-56
2022/08/11 10:26:53;;;;;;;8.20;2.20;;;37.50;38.00;;;;;;4955242;29;20086;-58
2022/08/11 10:35:01;;;;;;;4.18;2.38;;;36.70;39.40;;;;;;4958673;29;20042;-54
2022/08/11 10:37:33;;;;;;;3.58;1.98;;;36.60;38.90;;;;;;4958113;29;20098;-58
2022/08/11 10:40:00;;;;;;;2.75;2.15;;;36.70;39.20;;;;;;4957336;29;20159;-56
2022/08/11 10:47:56;;;;;;;4.75;2.28;;;32.60;43.00;;;;;;4958462;29;20038;-56
2022/08/11 11:01:21;;;;;;;5.60;1.88;;;31.70;44.10;;;;;;4958034;29;20031;-58
2022/08/11 11:03:53;;;;;;;5.43;2.88;;;31.20;45.00;;;;;;4956696;29;20027;-55
2022/08/11 11:06:27;;;;;;;2.42;1.70;;;30.70;45.50;;;;;;4956405;29;20024;-57
2022/08/11 11:08:59;;;;;;;3.90;2.05;;;30.80;45.60;;;;;;4957583;28;20039;-53
2022/08/11 11:19:56;;;;;;;3.00;2.45;;;31.10;45.80;;;;;;4957555;29;20062;-59
2022/08/11 11:22:39;;;;;;;4.65;2.13;;;31.20;45.70;;;;;;4957407;29;20019;-56
2022/08/11 11:25:26;;;;;;;6.50;3.22;;;31.20;44.60;;;;;;4956065;29;20035;-53
2022/08/11 11:28:22;;;;;;;3.08;1.95;;;30.50;45.90;;;;;;4957438;29;20031;-57
2022/08/11 11:31:44;;;;;;;3.67;2.17;;;30.00;46.50;;;;;;4955905;28;20095;-57
2022/08/11 11:34:28;;;;;;;3.45;2.42;;;29.90;47.00;;;;;;4958962;28;20039;-53
2022/08/11 11:36:56;;;;;;;3.35;2.00;;;29.70;47.00;;;;;;4974660;28;20549;-52
2022/08/11 11:39:25;;;;;;;2.60;2.20;;;29.80;47.30;;;;;;4955368;28;20043;-54
2022/08/11 11:41:54;;;;;;;6.95;2.50;;;29.70;47.20;;;;;;4955572;28;20082;-58
2022/08/11 11:44:21;;;;;;;3.83;2.17;;;29.80;47.30;;;;;;4955980;29;20027;-58
2022/08/11 11:46:48;;;;;;;3.22;2.10;;;30.00;47.30;;;;;;4956390;29;20363;-57
2022/08/11 11:49:17;;;;;;;5.88;2.30;;;30.10;47.20;;;;;;4956955;29;20031;-58
2022/08/11 11:51:45;;;;;;;6.00;2.35;;;30.10;47.70;;;;;;4955539;29;20031;-53
2022/08/11 11:54:16;;;;;;;3.58;2.40;;;30.00;47.40;;;;;;4955491;29;20023;-54
2022/08/11 11:56:44;;;;;;;5.32;2.22;;;30.00;48.00;;;;;;4955510;28;20055;-52
2022/08/11 12:01:56;;;;;;;5.20;2.33;;;29.90;47.80;;;;;;4956901;29;20090;-57
2022/08/11 12:04:22;;;;;;;4.60;2.50;;;29.90;47.60;;;;;;4956651;29;20114;-56
2022/08/11 12:06:49;;;;;;;2.88;2.17;;;29.90;47.70;;;;;;4956421;29;20078;-54
2022/08/11 12:09:17;;;;;;;3.63;2.28;;;29.70;47.90;;;;;;4955088;29;20031;-51
2022/08/11 12:14:28;;;;;;;4.63;2.03;;;29.60;48.10;;;;;;4956677;29;20057;-57
2022/08/11 12:16:55;;;;;;;2.40;2.20;;;29.80;48.10;;;;;;4971150;28;20031;-53
2022/08/11 12:19:27;;;;;;;4.90;2.40;;;29.80;48.80;;;;;;4955486;29;20078;-52
2022/08/11 12:27:26;;;;;;;3.50;2.25;;;29.60;48.50;;;;;;4956747;29;20042;-52
2022/08/11 12:29:58;;;;;;;2.80;2.22;;;29.50;48.80;;;;;;4971300;28;20196;-58
2022/08/11 12:32:27;;;;;;;3.50;2.28;;;29.50;48.90;;;;;;4955004;29;20082;-55
2022/08/11 12:34:56;;;;;;;2.20;2.00;;;29.60;48.50;;;;;;4971161;28;20023;-55
2022/08/11 12:37:28;;;;;;;4.00;2.10;;;29.50;48.30;;;;;;4954717;29;20027;-57
2022/08/11 12:45:30;;;;;;;6.45;2.35;;;29.60;48.90;;;;;;4956467;29;20078;-53
2022/08/11 12:54:26;;;;;;;4.90;2.38;;;29.60;49.60;;;;;;4955378;28;20508;-54
2022/08/11 13:05:24;;;;;;;10.65;2.10;;;29.90;49.00;;;;;;4955864;29;20033;-54
2022/08/11 13:07:51;;;;;;;5.28;2.50;;;29.90;48.90;;;;;;4955489;29;20027;-55
2022/08/11 13:13:06;;;;;;;6.18;2.55;;;29.90;49.00;;;;;;4955459;29;20192;-55
2022/08/11 13:15:35;;;;;;;4.50;2.67;;;29.80;48.60;;;;;;4954174;29;20027;-52
2022/08/11 13:18:02;;;;;;;3.17;2.42;;;29.80;48.70;;;;;;4954448;29;20024;-53
2022/08/11 13:20:28;;;;;;;5.38;2.17;;;29.70;48.50;;;;;;4954428;29;20025;-53
2022/08/11 13:22:56;;;;;;;3.03;2.30;;;29.50;49.00;;;;;;4954294;29;20019;-51
2022/08/11 13:25:25;;;;;;;5.07;2.55;;;29.50;48.80;;;;;;4954345;29;20082;-54
2022/08/11 13:27:55;;;;;;;8.02;2.35;;;29.50;48.80;;;;;;4954066;29;20019;-52
2022/08/11 13:33:09;;;;;;;3.78;2.67;;;29.70;49.40;;;;;;4955523;29;20069;-55
2022/08/11 13:35:36;;;;;;;4.20;2.33;;;29.80;48.60;;;;;;4955230;29;20031;-53
2022/08/11 13:38:03;;;;;;;6.05;2.78;;;29.70;48.60;;;;;;4954019;29;20019;-52
2022/08/11 13:40:29;;;;;;;2.97;2.05;;;29.70;48.30;;;;;;4954045;29;20031;-55
2022/08/11 13:42:57;;;;;;;6.07;2.90;;;29.70;48.40;;;;;;4955197;29;20031;-57
2022/08/11 13:45:24;;;;;;;5.05;2.40;;;29.70;48.30;;;;;;4954324;29;20046;-54
2022/08/11 13:47:54;;;;;;;7.68;2.35;;;29.70;48.20;;;;;;4954249;29;20019;-54
2022/08/11 13:51:29;;;;;;;3.77;2.70;;;29.80;48.00;;;;;;4954825;29;20054;-55
2022/08/11 13:53:09;;;;;;;2.10;1.90;;;29.80;48.90;;;;;;4954831;29;20037;-57
2022/08/11 13:55:35;;;;;;;4.40;2.28;;;29.80;48.20;;;;;;4953691;29;20027;-56
2022/08/11 13:58:01;;;;;;;5.53;2.60;;;29.80;47.60;;;;;;4970211;28;20390;-52
2022/08/11 14:00:30;;;;;;;3.45;2.38;;;29.80;48.10;;;;;;4953672;29;20032;-56
2022/08/11 14:02:56;;;;;;;6.53;2.60;;;29.80;47.60;;;;;;4953645;29;20023;-54
2022/08/11 14:05:29;;;;;;;8.27;2.47;;;29.80;47.90;;;;;;4956134;28;20028;-53
2022/08/11 14:08:02;;;;;;;2.95;2.08;;;29.90;47.90;;;;;;4958016;29;20051;-58
2022/08/11 14:10:29;;;;;;;4.45;2.33;;;29.90;48.50;;;;;;4957212;29;20109;-55
2022/08/11 14:16:00;;;;;;;4.57;2.45;;;29.90;48.30;;;;;;4958751;29;20045;-54
2022/08/11 14:18:28;;;;;;;4.70;2.38;;;30.00;47.90;;;;;;4957119;29;20058;-54
2022/08/11 14:23:54;;;;;;;3.30;2.40;;;30.10;48.20;;;;;;4958960;29;20042;-58
2022/08/11 14:26:27;;;;;;;5.70;2.30;;;29.90;47.90;;;;;;4957394;29;20537;-55
2022/08/11 14:29:01;;;;;;;2.85;2.55;;;29.80;48.00;;;;;;4957738;29;20031;-56
2022/08/11 14:31:28;;;;;;;3.88;2.55;;;29.80;48.30;;;;;;4957217;28;20023;-53
2022/08/11 14:33:56;;;;;;;4.50;2.53;;;29.80;47.60;;;;;;4956443;28;20078;-51
2022/08/11 14:36:25;;;;;;;5.40;2.75;;;29.70;47.80;;;;;;4942367;29;20020;-54
2022/08/11 14:38:54;;;;;;;6.13;2.92;;;29.70;47.90;;;;;;4953612;28;20035;-55
2022/08/11 14:47:04;;;;;;;11.35;3.58;;;29.90;47.90;;;;;;4939362;29;20383;-56
2022/08/11 14:49:34;;;;;;;5.13;2.60;;;29.80;48.30;;;;;;4938625;29;20040;-54
2022/08/11 14:52:03;;;;;;;6.68;3.20;;;29.90;48.80;;;;;;4938532;29;20538;-53
2022/08/11 14:57:19;;;;;;;10.15;2.97;;;29.80;48.30;;;;;;4939183;29;20051;-53
2022/08/11 14:59:47;;;;;;;3.60;2.73;;;29.80;48.10;;;;;;4953654;29;20091;-57
2022/08/11 15:05:00;;;;;;;5.88;2.70;;;29.80;48.00;;;;;;4938651;29;20043;-55
2022/08/11 15:07:30;;;;;;;4.85;3.25;;;29.90;48.30;;;;;;4938233;29;20156;-53
2022/08/11 15:09:58;;;;;;;5.75;2.80;;;29.90;47.10;;;;;;4953031;28;20059;-56
2022/08/11 15:12:24;;;;;;;12.02;3.38;;;29.90;47.70;;;;;;4938230;29;20030;-56
2022/08/11 15:17:37;;;;;;;5.93;2.72;;;30.00;47.50;;;;;;4937844;29;20035;-56
2022/08/11 15:25:44;;;;;;;4.30;2.75;;;29.80;47.10;;;;;;4938535;29;20038;-55
2022/08/11 15:45:46;;;;;;;5.15;2.80;;;30.00;47.00;;;;;;4937821;29;20042;-53
2022/08/11 15:48:11;;;;;;;5.15;2.40;;;29.90;47.60;;;;;;4937491;29;20062;-56
2022/08/11 15:50:45;;;;;;;4.97;2.60;;;29.90;47.20;;;;;;4952328;28;20055;-58
2022/08/11 15:53:37;;;;;;;6.72;2.90;;;29.90;47.70;;;;;;4938173;29;20106;-51
2022/08/11 15:56:04;;;;;;;5.20;2.63;;;29.90;47.70;;;;;;4937587;29;20031;-55
2022/08/11 16:04:15;;;;;;;4.28;2.67;;;29.90;47.20;;;;;;4937935;29;20034;-54
2022/08/11 16:06:52;;;;;;;4.65;2.58;;;29.90;47.20;;;;;;4952046;28;20028;-55
2022/08/11 16:09:45;;;;;;;7.72;3.60;;;29.80;47.40;;;;;;4951917;28;20024;-55
2022/08/11 16:12:15;;;;;;;4.28;2.80;;;29.80;47.30;;;;;;4937211;29;20020;-54
2022/08/11 16:17:37;;;;;;;6.63;3.03;;;29.80;47.10;;;;;;4937163;29;20414;-54
2022/08/11 16:20:06;;;;;;;6.90;3.08;;;29.70;47.00;;;;;;4951819;28;20060;-58
2022/08/11 16:22:45;;;;;;;5.03;3.15;;;29.70;47.20;;;;;;4952013;28;20055;-54
2022/08/11 16:25:16;;;;;;;5.32;2.75;;;29.60;47.40;;;;;;4937283;29;20426;-52
2022/08/11 16:27:45;;;;;;;5.20;3.10;;;29.60;47.70;;;;;;4935191;29;20052;-55
2022/08/11 16:30:13;;;;;;;5.13;2.92;;;29.60;47.50;;;;;;4951532;28;20032;-53
2022/08/11 16:32:43;;;;;;;5.90;3.03;;;29.70;47.50;;;;;;4937325;29;20020;-54
2022/08/11 16:40:45;;;;;;;6.32;3.30;;;29.40;47.00;;;;;;4937200;29;20038;-55
2022/08/11 16:48:57;;;;;;;5.60;2.65;;;29.40;47.40;;;;;;4950335;28;20036;-54
2022/08/11 16:51:23;;;;;;;4.20;2.50;;;29.40;47.70;;;;;;4951457;28;20063;-53
2022/08/11 16:53:49;;;;;;;5.32;2.55;;;29.40;47.20;;;;;;4951090;28;20075;-55
2022/08/11 16:56:18;;;;;;;9.85;2.78;;;29.40;47.30;;;;;;4936580;29;20028;-53
2022/08/11 17:01:36;;;;;;;5.03;2.40;;;29.30;47.60;;;;;;4936199;29;20031;-54
2022/08/11 17:18:01;;;;;;;4.53;2.40;;;29.20;47.50;;;;;;4936526;29;20448;-56
2022/08/11 17:20:28;;;;;;;4.35;2.50;;;29.20;47.50;;;;;;4936054;29;20058;-52
2022/08/11 17:25:40;;;;;;;6.40;2.50;;;29.10;47.50;;;;;;4936588;29;20055;-53
2022/08/11 17:28:07;;;;;;;5.30;2.60;;;29.00;47.50;;;;;;4951474;28;20027;-59
2022/08/11 17:36:04;;;;;;;5.05;2.22;;;28.90;48.10;;;;;;4936593;29;20026;-56
2022/08/11 17:38:32;;;;;;;4.35;2.67;;;28.80;48.30;;;;;;4934727;29;20059;-55
2022/08/11 17:49:19;;;;;;;7.20;2.60;;;28.60;49.00;;;;;;4940135;29;20043;-56
2022/08/11 18:00:07;;;;;;;4.13;3.03;;;28.50;49.40;;;;;;4939762;29;20042;-53
2022/08/11 18:05:35;;;;;;;6.25;2.65;;;28.30;49.30;;;;;;4940024;29;20189;-51
